Time;durP1;ratioP1;P1;durP2;ratioP2;P2;SDS_P1;SDS_P2;PMS_P1;PMS_P2;Temp;Humidity;BMP_temperature;BMP_pressure;BME280_temperature;BME280_humidity;BME280_pressure;Samples;Min_cycle;Max_cycle;Signal;HPM_P1;HPM_P2
2022/11/21 00:01:35;;;;;;;0.43;0.30;;;;;;;;;;5109651;28;20499;-78
2022/11/21 00:04:02;;;;;;;0.70;0.30;;;;;;;;;;5113141;28;20456;-80
2022/11/21 00:06:29;;;;;;;0.50;0.47;;;;;;;;;;5113604;28;20448;-78
2022/11/21 00:08:56;;;;;;;0.40;0.33;;;;;;;;;;5117121;28;20466;-87
2022/11/21 00:11:26;;;;;;;1.47;0.47;;;;;;;;;;5117502;28;20894;-88
2022/11/21 00:13:53;;;;;;;1.47;0.60;;;;;;;;;;5117404;28;20496;-79
2022/11/21 00:16:22;;;;;;;0.50;0.30;;;4.30;99.90;;;;;;5116102;28;20448;-87
2022/11/21 00:18:49;;;;;;;0.50;0.30;;;;;;;;;;5117540;28;20455;-81
2022/11/21 00:21:17;;;;;;;0.70;0.40;;;4.30;99.90;;;;;;5117514;28;20493;-79
2022/11/21 00:23:45;;;;;;;0.53;0.40;;;;;;;;;;5117329;28;20970;-80
2022/11/21 00:26:13;;;;;;;0.40;0.20;;;4.20;99.90;;;;;;5116629;28;20447;-81
2022/11/21 00:28:41;;;;;;;0.50;0.33;;;;;;;;;;5117280;28;20447;-82
2022/11/21 00:31:08;;;;;;;1.33;0.40;;;;;;;;;;5116007;28;20450;-83
2022/11/21 00:33:37;;;;;;;0.43;0.33;;;;;;;;;;5117419;28;20444;-78
2022/11/21 00:36:08;;;;;;;0.40;0.27;;;4.10;99.90;;;;;;5117839;28;20448;-86
2022/11/21 00:38:35;;;;;;;0.40;0.20;;;;;;;;;;5117277;28;20451;-83
2022/11/21 00:41:02;;;;;;;0.30;0.20;;;;;;;;;;5117287;28;20489;-83
2022/11/21 00:43:29;;;;;;;0.40;0.20;;;;;;;;;;5117179;28;20467;-89
2022/11/21 00:45:58;;;;;;;2.40;0.40;;;;;;;;;;5116573;28;20534;-80
2022/11/21 00:48:25;;;;;;;0.70;0.50;;;;;;;;;;5131782;28;20439;-80
2022/11/21 00:50:53;;;;;;;0.80;0.40;;;;;;;;;;5125994;28;20938;-86
2022/11/21 00:53:20;;;;;;;0.40;0.20;;;;;;;;;;5117184;28;20436;-83
2022/11/21 00:55:47;;;;;;;1.80;0.50;;;;;;;;;;5117177;28;20440;-81
2022/11/21 00:58:15;;;;;;;0.50;0.30;;;;;;;;;;5116917;28;20462;-82
2022/11/21 01:00:42;;;;;;;0.70;0.57;;;;;;;;;;5115334;28;20483;-86
2022/11/21 01:03:09;;;;;;;0.50;0.33;;;;;;;;;;5115331;28;20448;-81
2022/11/21 01:05:36;;;;;;;0.40;0.27;;;;;;;;;;5115435;28;20458;-81
2022/11/21 01:08:05;;;;;;;0.40;0.23;;;;;;;;;;5115416;28;20444;-81
2022/11/21 01:10:32;;;;;;;0.40;0.20;;;;;;;;;;5115096;28;20452;-86
2022/11/21 01:12:59;;;;;;;1.10;0.47;;;;;;;;;;5115195;28;20440;-82
2022/11/21 01:15:26;;;;;;;0.40;0.30;;;;;;;;;;5114141;28;20448;-82
2022/11/21 01:17:53;;;;;;;0.60;0.40;;;;;;;;;;5115223;28;20465;-81
2022/11/21 01:20:20;;;;;;;2.50;0.40;;;;;;;;;;5115197;28;20448;-85
2022/11/21 01:22:48;;;;;;;0.87;0.50;;;;;;;;;;5115118;28;20459;-87
2022/11/21 01:25:16;;;;;;;1.07;0.50;;;3.90;99.90;;;;;;5114491;28;20436;-80
2022/11/21 01:27:43;;;;;;;0.30;0.20;;;;;;;;;;5114998;28;20957;-86
2022/11/21 01:30:13;;;;;;;0.40;0.30;;;4.20;99.90;;;;;;5114749;28;20444;-83
2022/11/21 01:32:40;;;;;;;0.33;0.20;;;;;;;;;;5113093;28;20505;-81
2022/11/21 01:35:08;;;;;;;1.60;0.50;;;;;;;;;;5114903;28;20452;-86
2022/11/21 01:37:35;;;;;;;1.07;0.40;;;;;;;;;;5114811;28;20931;-80
2022/11/21 01:40:02;;;;;;;1.33;0.40;;;;;;;;;;5114802;28;20444;-80
2022/11/21 01:42:43;;;;;;;0.50;0.30;;;4.10;99.90;;;;;;5114659;28;20495;-86
2022/11/21 01:45:43;;;;;;;0.50;0.40;;;4.00;99.90;;;;;;5114417;28;20455;-80
2022/11/21 01:48:10;;;;;;;0.90;0.50;;;;;;;;;;5114345;28;20458;-79
2022/11/21 01:50:37;;;;;;;0.50;0.40;;;;;;;;;;5114303;28;20535;-81
2022/11/21 01:53:04;;;;;;;0.73;0.47;;;;;;;;;;5114751;28;20444;-80
2022/11/21 01:55:32;;;;;;;2.23;0.50;;;;;;;;;;5114702;28;20947;-82
2022/11/21 01:58:00;;;;;;;3.93;0.90;;;;;;;;;;5114287;28;20448;-79
2022/11/21 02:00:33;;;;;;;0.97;0.67;;;3.90;99.90;;;;;;5075289;28;1071834;-85
2022/11/21 02:03:04;;;;;;;1.13;0.63;;;;;;;;;;5115438;28;20198;-75
2022/11/21 02:05:32;;;;;;;0.40;0.30;;;3.90;99.90;;;;;;5115449;28;20818;-85
2022/11/21 02:08:10;;;;;;;0.50;0.40;;;3.90;99.90;;;;;;5115555;28;20451;-85
2022/11/21 02:10:41;;;;;;;1.20;0.80;;;3.90;99.90;;;;;;5115639;28;20478;-82
2022/11/21 02:13:12;;;;;;;0.80;0.50;;;;;;;;;;5115809;28;20458;-88
2022/11/21 02:15:39;;;;;;;0.50;0.40;;;;;;;;;;5114597;28;20462;-82
2022/11/21 02:18:06;;;;;;;0.37;0.20;;;;;;;;;;5115359;28;20444;-85
2022/11/21 02:20:33;;;;;;;1.33;0.37;;;;;;;;;;5115446;28;20447;-85
2022/11/21 02:23:07;;;;;;;3.20;0.70;;;3.80;99.90;;;;;;5115271;28;20451;-85
2022/11/21 02:25:38;;;;;;;0.40;0.27;;;3.80;99.90;;;;;;5115480;28;20448;-81
2022/11/21 02:28:08;;;;;;;0.90;0.43;;;3.80;99.90;;;;;;5115482;28;20447;-85
2022/11/21 02:30:38;;;;;;;1.03;0.50;;;3.90;99.90;;;;;;5113379;28;20454;-85
2022/11/21 02:33:06;;;;;;;0.80;0.40;;;;;;;;;;5115224;28;20444;-81
2022/11/21 02:35:33;;;;;;;0.60;0.40;;;;;;;;;;5115326;28;20448;-82
2022/11/21 02:38:03;;;;;;;1.20;0.30;;;3.80;99.90;;;;;;5114769;28;20456;-88
2022/11/21 02:40:34;;;;;;;1.73;0.60;;;3.80;99.90;;;;;;5114529;28;20440;-87
2022/11/21 02:43:08;;;;;;;0.70;0.53;;;3.80;99.90;;;;;;5079528;28;20467;-84
2022/11/21 02:45:38;;;;;;;0.63;0.40;;;3.80;99.90;;;;;;5113947;28;20443;-80
2022/11/21 02:48:06;;;;;;;1.00;0.40;;;;;;;;;;5115002;28;20809;-87
2022/11/21 02:50:34;;;;;;;1.70;0.37;;;3.70;99.90;;;;;;5114847;28;20432;-82
2022/11/21 02:53:01;;;;;;;0.50;0.33;;;;;;;;;;5116484;27;20455;-86
2022/11/21 02:55:28;;;;;;;0.37;0.20;;;;;;;;;;5114823;28;20953;-80
2022/11/21 02:57:55;;;;;;;0.80;0.53;;;;;;;;;;5114244;28;20474;-82
2022/11/21 03:00:24;;;;;;;0.40;0.30;;;;;;;;;;5114002;28;20482;-83
2022/11/21 03:02:53;;;;;;;1.17;0.40;;;;;;;;;;5114728;28;20495;-87
2022/11/21 03:05:20;;;;;;;0.50;0.40;;;3.80;99.90;;;;;;5116681;27;20478;-86
2022/11/21 03:07:48;;;;;;;1.23;0.40;;;;;;;;;;5114529;28;20452;-87
2022/11/21 03:10:15;;;;;;;0.30;0.20;;;;;;;;;;5114270;28;20531;-82
2022/11/21 03:12:43;;;;;;;0.50;0.30;;;6.10;99.90;;;;;;5114373;28;20809;-84
2022/11/21 03:15:12;;;;;;;0.80;0.43;;;3.20;99.90;;;;;;5114509;28;20791;-81
2022/11/21 03:17:41;;;;;;;0.40;0.40;;;;;;;;;;5114850;28;20448;-81
2022/11/21 03:20:09;;;;;;;0.67;0.30;;;3.70;99.90;;;;;;5117035;28;20812;-78
2022/11/21 03:22:36;;;;;;;0.47;0.40;;;;;;;;;;5131087;28;20492;-85
2022/11/21 03:25:03;;;;;;;0.80;0.40;;;;;;;;;;5120725;28;20435;-83
2022/11/21 03:27:30;;;;;;;0.40;0.20;;;;;;;;;;5113889;28;20840;-81
2022/11/21 03:29:57;;;;;;;0.60;0.30;;;;;;;;;;5113798;28;20773;-84
2022/11/21 03:32:24;;;;;;;0.60;0.50;;;;;;;;;;5112821;28;20459;-83
2022/11/21 03:34:53;;;;;;;0.40;0.30;;;;;;;;;;5113498;28;20440;-80
2022/11/21 03:37:20;;;;;;;1.00;0.40;;;;;;;;;;5113567;28;20455;-81
2022/11/21 03:39:47;;;;;;;0.40;0.30;;;;;;;;;;5113761;28;20450;-81
2022/11/21 03:42:14;;;;;;;1.37;0.40;;;;;;;;;;5113531;28;20488;-79
2022/11/21 03:44:42;;;;;;;0.47;0.33;;;;;;;;;;5113522;28;20455;-83
2022/11/21 03:47:09;;;;;;;0.40;0.20;;;;;;;;;;5112462;28;20922;-82
2022/11/21 03:49:36;;;;;;;0.40;0.30;;;;;;;;;;5113653;28;20456;-88
2022/11/21 03:52:04;;;;;;;0.60;0.30;;;;;;;;;;5113662;28;20455;-85
2022/11/21 03:54:31;;;;;;;0.60;0.40;;;;;;;;;;5113440;28;20946;-79
2022/11/21 03:56:59;;;;;;;0.60;0.30;;;;;;;;;;5113359;28;20452;-85
2022/11/21 03:59:26;;;;;;;1.50;0.40;;;;;;;;;;5113767;28;20816;-81
2022/11/21 04:01:53;;;;;;;0.97;0.53;;;;;;;;;;5112093;28;20491;-86
2022/11/21 04:04:20;;;;;;;0.97;0.40;;;;;;;;;;5113380;28;20446;-80
2022/11/21 04:06:48;;;;;;;0.40;0.20;;;;;;;;;;5113465;28;21197;-81
2022/11/21 04:09:16;;;;;;;5.33;0.83;;;4.00;99.90;;;;;;5113437;28;20810;-80
2022/11/21 04:11:43;;;;;;;0.90;0.30;;;;;;;;;;5110959;28;20800;-84
2022/11/21 04:14:10;;;;;;;1.10;0.30;;;;;;;;;;5113070;28;20448;-80
2022/11/21 04:16:37;;;;;;;0.70;0.50;;;;;;;;;;5112239;28;20448;-80
2022/11/21 04:19:04;;;;;;;0.53;0.40;;;;;;;;;;5111082;28;20797;-80
2022/11/21 04:21:31;;;;;;;0.50;0.30;;;;;;;;;;5113176;28;20479;-79
2022/11/21 04:23:58;;;;;;;0.70;0.30;;;;;;;;;;5113228;28;20455;-84
2022/11/21 04:26:27;;;;;;;1.23;0.30;;;4.10;99.90;;;;;;5113200;28;20453;-79
2022/11/21 04:28:54;;;;;;;0.70;0.70;;;;;;;;;;5113045;28;20448;-86
2022/11/21 04:31:21;;;;;;;0.50;0.30;;;;;;;;;;5111780;28;20455;-80
2022/11/21 04:33:48;;;;;;;2.53;0.60;;;;;;;;;;5113116;28;20452;-79
2022/11/21 04:36:15;;;;;;;0.97;0.30;;;;;;;;;;5112972;28;20450;-80
2022/11/21 04:38:42;;;;;;;0.60;0.37;;;;;;;;;;5113091;28;20436;-85
2022/11/21 04:41:09;;;;;;;1.03;0.60;;;;;;;;;;5112766;28;20535;-79
2022/11/21 04:43:37;;;;;;;1.47;0.63;;;4.30;99.90;;;;;;5113191;28;20451;-83
2022/11/21 04:46:04;;;;;;;0.70;0.33;;;;;;;;;;5111738;28;20451;-81
2022/11/21 04:48:32;;;;;;;0.50;0.30;;;;;;;;;;5112888;28;20931;-82
2022/11/21 04:50:59;;;;;;;0.50;0.30;;;;;;;;;;5113021;28;20919;-80
2022/11/21 04:53:26;;;;;;;0.40;0.30;;;;;;;;;;5113550;28;20458;-82
2022/11/21 04:55:53;;;;;;;0.40;0.40;;;;;;;;;;5116414;27;20479;-79
2022/11/21 04:58:21;;;;;;;0.60;0.40;;;;;;;;;;5116547;28;20452;-79
2022/11/21 05:00:49;;;;;;;0.40;0.30;;;4.30;99.90;;;;;;5115122;28;20993;-81
2022/11/21 05:03:16;;;;;;;0.70;0.57;;;;;;;;;;5109070;28;20491;-80
2022/11/21 05:05:43;;;;;;;0.60;0.47;;;;;;;;;;5113920;28;20444;-83
2022/11/21 05:08:10;;;;;;;0.77;0.60;;;;;;;;;;5116273;28;20454;-84
2022/11/21 05:13:21;;;;;;;0.60;0.37;;;;;;;;;;5116148;28;20927;-80
2022/11/21 05:15:50;;;;;;;1.60;0.30;;;4.20;99.90;;;;;;5115070;28;20440;-79
2022/11/21 05:18:18;;;;;;;1.73;0.73;;;;;;;;;;5116144;28;20505;-84
2022/11/21 05:20:45;;;;;;;0.80;0.43;;;;;;;;;;5116660;28;20440;-79
2022/11/21 05:23:12;;;;;;;5.77;0.70;;;;;;;;;;5116094;28;20494;-79
2022/11/21 05:25:40;;;;;;;0.50;0.30;;;;;;;;;;5116522;28;20452;-82
2022/11/21 05:28:07;;;;;;;0.80;0.40;;;;;;;;;;5115933;28;20459;-79
2022/11/21 05:30:34;;;;;;;1.10;0.60;;;;;;;;;;5114423;28;20448;-79
2022/11/21 05:33:02;;;;;;;3.97;2.77;;;;;;;;;;5115866;28;20466;-79
2022/11/21 05:35:29;;;;;;;24.63;12.70;;;;;;;;;;5115995;28;20816;-80
2022/11/21 05:37:57;;;;;;;2.50;0.70;;;;;;;;;;5115984;28;20447;-84
2022/11/21 05:40:24;;;;;;;10.43;7.97;;;;;;;;;;5115782;28;21072;-83
2022/11/21 05:45:36;;;;;;;2.43;1.27;;;;;;;;;;5114421;28;20633;-84
2022/11/21 05:48:06;;;;;;;1.30;1.07;;;4.40;99.90;;;;;;5115727;28;20454;-87
2022/11/21 05:50:33;;;;;;;2.90;2.20;;;;;;;;;;5115507;28;20497;-86
2022/11/21 05:53:02;;;;;;;2.67;1.50;;;4.40;99.90;;;;;;5115746;28;20444;-83
2022/11/21 05:55:29;;;;;;;1.00;0.87;;;;;;;;;;5080005;28;20512;-83
2022/11/21 05:57:59;;;;;;;0.77;0.53;;;4.40;99.90;;;;;;5115579;28;20447;-85
2022/11/21 06:00:26;;;;;;;1.30;0.70;;;;;;;;;;5113916;28;20464;-84
2022/11/21 06:05:39;;;;;;;2.53;2.20;;;4.40;99.90;;;;;;5114175;28;20443;-84
2022/11/21 06:08:06;;;;;;;13.90;11.33;;;;;;;;;;5115316;28;20440;-83
2022/11/21 06:10:33;;;;;;;5.30;1.37;;;;;;;;;;5115105;28;20943;-84
2022/11/21 06:13:01;;;;;;;3.03;2.50;;;;;;;;;;5114794;28;20463;-83
2022/11/21 06:15:28;;;;;;;2.60;1.20;;;;;;;;;;5113282;28;20452;-79
2022/11/21 06:17:55;;;;;;;3.30;2.97;;;;;;;;;;5115170;28;20447;-80
2022/11/21 06:20:22;;;;;;;1.70;1.30;;;;;;;;;;5114390;28;20918;-78
2022/11/21 06:22:52;;;;;;;1.63;1.50;;;4.30;99.90;;;;;;5114638;28;20491;-79
2022/11/21 06:25:19;;;;;;;4.70;4.23;;;;;;;;;;5114621;28;20475;-78
2022/11/21 06:27:46;;;;;;;4.23;3.80;;;;;;;;;;5114616;28;20538;-79
2022/11/21 06:30:13;;;;;;;5.07;3.90;;;;;;;;;;5114087;27;20470;-81
2022/11/21 06:32:40;;;;;;;18.13;13.17;;;;;;;;;;5114118;28;20946;-82
2022/11/21 06:35:08;;;;;;;3.60;1.80;;;;;;;;;;5114069;28;20452;-79
2022/11/21 06:37:35;;;;;;;2.40;0.70;;;;;;;;;;5114561;28;20451;-84
2022/11/21 06:40:04;;;;;;;1.60;0.73;;;;;;;;;;5111938;28;20979;-84
2022/11/21 06:42:32;;;;;;;1.20;0.70;;;4.10;99.90;;;;;;5114216;28;20484;-84
2022/11/21 06:44:59;;;;;;;1.00;0.70;;;;;;;;;;5114505;28;20814;-81
2022/11/21 06:47:26;;;;;;;1.83;1.03;;;;;;;;;;5113181;28;20535;-85
2022/11/21 06:49:54;;;;;;;1.23;0.60;;;;;;;;;;5114427;28;20482;-85
2022/11/21 06:52:21;;;;;;;3.53;1.30;;;;;;;;;;5114360;28;20868;-86
2022/11/21 06:54:48;;;;;;;1.90;1.03;;;;;;;;;;5114151;28;20443;-83
2022/11/21 06:57:16;;;;;;;2.73;2.53;;;;;;;;;;5114427;28;20514;-84
2022/11/21 06:59:43;;;;;;;5.13;4.27;;;;;;;;;;5113965;28;20512;-82
2022/11/21 07:02:12;;;;;;;5.60;1.60;;;;;;;;;;5112746;28;20973;-83
2022/11/21 07:04:39;;;;;;;2.70;1.60;;;;;;;;;;5114034;28;20448;-84
2022/11/21 07:07:06;;;;;;;2.97;1.50;;;;;;;;;;5114214;28;20447;-79
2022/11/21 07:09:34;;;;;;;4.20;2.10;;;;;;;;;;5113888;28;20451;-84
2022/11/21 07:14:44;;;;;;;4.07;2.10;;;3.40;99.90;;;;;;5113965;28;20852;-79
2022/11/21 07:17:11;;;;;;;2.97;2.23;;;;;;;;;;5110179;28;20444;-80
2022/11/21 07:19:38;;;;;;;4.67;2.60;;;;;;;;;;5113725;28;20444;-79
2022/11/21 07:22:07;;;;;;;3.77;2.37;;;;;;;;;;5113641;28;20439;-80
2022/11/21 07:24:34;;;;;;;2.00;1.30;;;;;;;;;;5114623;28;20448;-86
2022/11/21 07:27:01;;;;;;;2.57;0.77;;;;;;;;;;5113983;28;20813;-80
2022/11/21 07:29:28;;;;;;;2.30;0.90;;;;;;;;;;5113577;28;20452;-80
2022/11/21 07:31:57;;;;;;;8.53;1.03;;;3.50;99.90;;;;;;5112425;28;20455;-80
2022/11/21 07:34:24;;;;;;;2.03;0.93;;;;;;;;;;5113938;28;20520;-84
2022/11/21 07:36:51;;;;;;;2.17;1.13;;;;;;;;;;5113852;28;20787;-83
2022/11/21 07:39:18;;;;;;;1.20;1.10;;;;;;;;;;5114723;28;20482;-90
2022/11/21 07:41:45;;;;;;;3.43;1.50;;;;;;;;;;5115196;28;20455;-85
2022/11/21 07:44:12;;;;;;;2.60;1.80;;;;;;;;;;5114739;28;20479;-89
2022/11/21 07:46:39;;;;;;;5.70;1.60;;;;;;;;;;5114124;28;20448;-85
2022/11/21 07:49:07;;;;;;;2.87;1.87;;;3.90;99.90;;;;;;5114404;28;20440;-87
2022/11/21 07:51:34;;;;;;;2.20;1.50;;;;;;;;;;5114538;28;20444;-87
2022/11/21 07:54:02;;;;;;;4.57;1.60;;;;;;;;;;5114820;28;20791;-92
2022/11/21 07:56:29;;;;;;;3.07;1.30;;;;;;;;;;5114681;28;20483;-87
2022/11/21 07:58:56;;;;;;;3.20;1.27;;;;;;;;;;5114636;28;20436;-92
2022/11/21 08:01:23;;;;;;;2.53;0.90;;;;;;;;;;5113601;28;20486;-89
2022/11/21 08:03:50;;;;;;;3.20;1.00;;;;;;;;;;5114079;28;20491;-88
2022/11/21 08:06:18;;;;;;;1.73;1.03;;;5.70;99.90;;;;;;5114119;28;20935;-86
2022/11/21 08:08:47;;;;;;;2.00;1.00;;;;;;;;;;5114576;28;20440;-90
2022/11/21 08:11:14;;;;;;;3.10;1.10;;;;;;;;;;5114633;28;20436;-86
2022/11/21 08:13:41;;;;;;;3.40;1.60;;;;;;;;;;5114003;28;20442;-91
2022/11/21 08:16:08;;;;;;;2.00;1.40;;;;;;;;;;5114357;27;20453;-87
2022/11/21 08:18:35;;;;;;;1.73;1.20;;;;;;;;;;5113942;28;20443;-90
2022/11/21 08:21:02;;;;;;;3.43;1.33;;;;;;;;;;5114077;28;20535;-91
2022/11/21 08:23:32;;;;;;;2.70;1.63;;;;;;;;;;5113469;28;20552;-89
2022/11/21 08:25:59;;;;;;;3.13;1.50;;;;;;;;;;5113317;28;20458;-83
2022/11/21 08:28:26;;;;;;;2.17;1.40;;;;;;;;;;5114053;28;20443;-83
2022/11/21 08:30:54;;;;;;;4.43;2.60;;;;;;;;;;5115907;28;20451;-85
2022/11/21 08:33:21;;;;;;;2.10;1.30;;;;;;;;;;5117144;28;20551;-83
2022/11/21 08:35:48;;;;;;;4.50;1.40;;;;;;;;;;5117053;28;20444;-83
2022/11/21 08:38:15;;;;;;;1.80;1.40;;;;;;;;;;5116950;28;20443;-82
2022/11/21 08:40:43;;;;;;;2.47;1.40;;;;;;;;;;5116979;28;20468;-82
2022/11/21 08:43:11;;;;;;;5.97;1.80;;;;;;;;;;5116836;27;20487;-82
2022/11/21 08:45:38;;;;;;;1.80;1.27;;;7.50;99.90;;;;;;5115713;28;20459;-88
2022/11/21 08:48:10;;;;;;;3.23;1.00;;;7.50;99.90;;;;;;5116997;28;20452;-82
2022/11/21 08:50:37;;;;;;;2.50;1.10;;;;;;;;;;5116896;28;20452;-82
2022/11/21 08:53:04;;;;;;;2.53;1.20;;;;;;;;;;5116700;28;20817;-81
2022/11/21 08:55:31;;;;;;;2.37;1.27;;;;;;;;;;5114440;28;20451;-81
2022/11/21 08:58:00;;;;;;;2.53;1.20;;;;;;;;;;5116911;28;20442;-84
2022/11/21 09:00:27;;;;;;;16.63;12.93;;;;;;;;;;5115298;28;20482;-82
2022/11/21 09:02:54;;;;;;;3.30;1.87;;;;;;;;;;5116833;27;20482;-88
2022/11/21 09:05:21;;;;;;;1.70;1.40;;;;;;;;;;5118979;27;20444;-86
2022/11/21 09:07:49;;;;;;;1.63;1.17;;;;;;;;;;5117087;28;20443;-81
2022/11/21 09:10:16;;;;;;;1.73;1.13;;;;;;;;;;5116770;28;20451;-81
2022/11/21 09:12:43;;;;;;;3.67;1.50;;;;;;;;;;5116290;28;20451;-81
2022/11/21 09:18:03;;;;;;;1.70;1.00;;;;;;;;;;5116432;28;20443;-81
2022/11/21 09:20:31;;;;;;;3.87;1.23;;;;;;;;;;5116507;28;20444;-81
2022/11/21 09:22:58;;;;;;;2.73;1.30;;;;;;;;;;5117381;27;20471;-82
2022/11/21 09:25:25;;;;;;;2.70;2.40;;;;;;;;;;5116671;28;20462;-90
2022/11/21 09:27:52;;;;;;;4.33;3.97;;;;;;;;;;5116442;28;20548;-83
2022/11/21 09:30:21;;;;;;;5.57;3.87;;;;;;;;;;5114815;28;20456;-86
2022/11/21 09:32:48;;;;;;;4.03;1.40;;;;;;;;;;5116012;28;20458;-81
2022/11/21 09:35:15;;;;;;;3.17;0.83;;;;;;;;;;5116262;28;20452;-80
2022/11/21 09:37:42;;;;;;;4.70;1.73;;;;;;;;;;5115631;28;20792;-80
2022/11/21 09:40:13;;;;;;;1.63;0.77;;;9.00;99.90;;;;;;5115383;28;20474;-80
2022/11/21 09:42:57;;;;;;;4.90;1.40;;;8.90;99.90;;;;;;5115498;28;20808;-82
2022/11/21 09:45:29;;;;;;;7.73;4.33;;;9.70;99.90;;;;;;5114349;28;20458;-80
2022/11/21 09:47:57;;;;;;;2.90;1.33;;;;;;;;;;5115575;28;20440;-80
2022/11/21 09:50:29;;;;;;;7.70;6.97;;;;;;;;;;5115602;28;20447;-83
2022/11/21 09:52:59;;;;;;;67.60;44.53;;;;;;;;;;5115515;28;20796;-84
2022/11/21 09:55:43;;;;;;;3.00;0.80;;;9.00;99.90;;;;;;5115572;28;20448;-84
2022/11/21 09:58:20;;;;;;;4.07;0.90;;;8.60;99.90;;;;;;5115228;28;20448;-84
2022/11/21 10:00:51;;;;;;;5.33;1.10;;;;;;;;;;5111508;28;20475;-84
2022/11/21 10:03:18;;;;;;;21.13;19.50;;;;;;;;;;5115245;28;20578;-83
2022/11/21 10:05:51;;;;;;;3.57;2.33;;;10.00;99.90;;;;;;5115405;28;20450;-81
2022/11/21 10:08:29;;;;;;;4.20;0.97;;;10.00;99.90;;;;;;5115122;28;20965;-85
2022/11/21 10:10:58;;;;;;;1.40;0.90;;;;;;;;;;5115283;28;20538;-80
2022/11/21 10:13:42;;;;;;;3.27;0.93;;;10.10;99.90;;;;;;5115195;28;20448;-83
2022/11/21 10:16:18;;;;;;;5.83;0.90;;;10.20;99.90;;;;;;5113791;28;20444;-87
2022/11/21 10:19:01;;;;;;;1.67;0.70;;;;;;;;;;5115100;28;20805;-78
2022/11/21 10:21:36;;;;;;;1.90;0.97;;;;;;;;;;5114800;28;20444;-80
2022/11/21 10:24:21;;;;;;;1.43;1.00;;;9.70;99.90;;;;;;5114673;28;20491;-79
2022/11/21 10:26:53;;;;;;;2.13;0.57;;;9.60;99.90;;;;;;5115051;28;20439;-81
2022/11/21 10:29:22;;;;;;;0.50;0.33;;;;;;;;;;5114959;28;20443;-81
2022/11/21 10:31:51;;;;;;;6.63;1.53;;;;;;;;;;5113545;28;21008;-80
2022/11/21 10:34:20;;;;;;;2.70;0.80;;;;;;;;;;5114828;28;20435;-83
2022/11/21 10:36:50;;;;;;;0.80;0.67;;;;;;;;;;5114727;28;20443;-82
2022/11/21 10:39:20;;;;;;;3.23;1.30;;;9.30;99.90;;;;;;5114610;28;20460;-82
2022/11/21 10:41:51;;;;;;;2.00;1.80;;;9.20;99.90;;;;;;5114586;28;20451;-81
2022/11/21 10:47:15;;;;;;;4.13;2.77;;;;;;;;;;5113355;28;20430;-82
2022/11/21 10:49:43;;;;;;;2.53;1.23;;;9.10;99.90;;;;;;5114655;28;20508;-82
2022/11/21 10:52:14;;;;;;;5.20;1.50;;;9.60;99.90;;;;;;5113652;28;20991;-83
2022/11/21 10:55:06;;;;;;;2.93;2.70;;;9.90;99.90;;;;;;5111692;28;20436;-84
2022/11/21 10:57:39;;;;;;;5.30;1.03;;;9.50;99.90;;;;;;5111737;28;20436;-80
2022/11/21 11:00:15;;;;;;;2.60;1.53;;;;;;;;;;5111687;28;20835;-83
2022/11/21 11:03:00;;;;;;;1.80;1.03;;;;;;;;;;5111736;28;20458;-81
2022/11/21 11:05:28;;;;;;;3.40;0.80;;;;;;;;;;5113781;28;20482;-84
2022/11/21 11:08:04;;;;;;;1.80;1.43;;;;;;;;;;5114759;28;20458;-83
2022/11/21 11:10:32;;;;;;;3.40;1.47;;;10.30;99.90;;;;;;5114208;28;20470;-81
2022/11/21 11:15:54;;;;;;;10.27;5.23;;;;;;;;;;5111579;28;20492;-89
2022/11/21 11:18:24;;;;;;;29.60;26.53;;;;;;;;;;5114013;28;20435;-80
2022/11/21 11:20:51;;;;;;;86.77;51.13;;;;;;;;;;5113601;28;20455;-82
2022/11/21 11:23:28;;;;;;;155.67;66.57;;;;;;;;;;5113351;28;20556;-75
2022/11/21 11:25:56;;;;;;;131.07;62.80;;;;;;;;;;5113120;28;20454;-79
2022/11/21 11:28:24;;;;;;;118.93;57.90;;;;;;;;;;5113453;28;20452;-81
2022/11/21 11:30:52;;;;;;;137.87;61.80;;;9.20;99.90;;;;;;5112021;28;20938;-84
2022/11/21 11:33:35;;;;;;;143.93;62.60;;;;;;;;;;5113412;28;20443;-76
2022/11/21 11:36:12;;;;;;;111.97;55.93;;;9.80;99.90;;;;;;5113145;28;20444;-87
2022/11/21 11:38:39;;;;;;;80.93;49.60;;;;;;;;;;5112799;28;20584;-79
2022/11/21 11:41:19;;;;;;;78.77;48.50;;;9.20;99.90;;;;;;5113272;28;20440;-76
2022/11/21 11:50:09;;;;;;;165.20;68.73;;;;;;;;;;5113145;28;20431;-80
2022/11/21 11:52:21;;;;;;;182.80;73.30;;;;;;;;;;5112867;28;20439;-76
2022/11/21 11:54:50;;;;;;;187.90;76.23;;;;;;;;;;5112946;28;20450;-80
2022/11/21 11:57:17;;;;;;;184.53;75.93;;;;;;;;;;5112777;28;20968;-86
2022/11/21 11:59:48;;;;;;;173.37;72.37;;;;;;;;;;5112632;28;20455;-81
2022/11/21 12:02:19;;;;;;;162.63;68.43;;;9.70;99.90;;;;;;5112704;28;20943;-80
2022/11/21 12:04:51;;;;;;;133.33;59.90;;;;;;;;;;5117704;28;20494;-76
2022/11/21 12:07:21;;;;;;;117.10;57.07;;;9.20;99.90;;;;;;5117199;28;20443;-79
2022/11/21 12:09:56;;;;;;;122.67;61.10;;;9.20;99.90;;;;;;5114139;28;20477;-76
2022/11/21 12:12:29;;;;;;;110.90;55.80;;;9.10;99.90;;;;;;5117110;28;20471;-76
2022/11/21 12:17:55;;;;;;;124.57;57.67;;;9.00;99.90;;;;;;5115333;28;20435;-75
2022/11/21 12:20:30;;;;;;;132.70;61.97;;;8.80;99.90;;;;;;5115161;28;20491;-76
2022/11/21 12:22:57;;;;;;;117.03;56.87;;;8.90;99.90;;;;;;5115228;28;20443;-76
2022/11/21 12:25:27;;;;;;;108.37;54.37;;;;;;;;;;5114874;28;20482;-78
2022/11/21 12:27:55;;;;;;;98.93;52.10;;;9.70;99.90;;;;;;5113124;28;20439;-77
2022/11/21 12:30:41;;;;;;;120.33;72.97;;;;;;;;;;5113777;28;20881;-75
2022/11/21 12:33:17;;;;;;;98.57;52.53;;;9.70;99.90;;;;;;5114604;28;20478;-77
2022/11/21 12:36:04;;;;;;;81.73;47.00;;;10.10;99.90;;;;;;5114873;28;20439;-75
2022/11/21 12:38:54;;;;;;;77.10;49.53;;;9.20;99.90;;;;;;5115223;28;20475;-76
2022/11/21 12:44:19;;;;;;;48.53;37.90;;;;;;;;;;5115023;28;20491;-79
2022/11/21 12:46:59;;;;;;;36.47;32.67;;;9.20;99.90;;;;;;5114154;28;20934;-77
2022/11/21 12:55:23;;;;;;;27.90;25.30;;;9.40;99.90;;;;;;5059142;28;20426;-76
2022/11/21 12:58:05;;;;;;;27.67;25.37;;;9.20;99.90;;;;;;5116712;28;20439;-76
2022/11/21 13:00:42;;;;;;;47.13;42.67;;;9.60;99.90;;;;;;5115283;28;20509;-75
2022/11/21 13:03:36;;;;;;;24.63;22.70;;;;;;;;;;5116848;28;20446;-76
2022/11/21 13:06:06;;;;;;;25.10;23.03;;;10.30;99.90;;;;;;5080531;28;20464;-78
2022/11/21 13:08:37;;;;;;;32.73;29.70;;;9.80;99.90;;;;;;5116699;28;20454;-78
2022/11/21 13:14:00;;;;;;;33.83;30.67;;;10.90;99.90;;;;;;5116134;28;20498;-79
2022/11/21 13:16:36;;;;;;;30.83;28.23;;;;;;;;;;5115631;28;20965;-79
2022/11/21 13:19:12;;;;;;;24.80;22.83;;;11.10;99.90;;;;;;5116346;27;20828;-78
2022/11/21 13:21:43;;;;;;;37.67;33.93;;;10.70;99.90;;;;;;5116396;28;20513;-80
2022/11/21 13:24:12;;;;;;;33.00;29.80;;;;;;;;;;5116360;27;20479;-76
2022/11/21 13:26:51;;;;;;;41.17;36.40;;;10.40;99.90;;;;;;5116596;27;20464;-79
2022/11/21 13:29:18;;;;;;;63.10;46.20;;;;;;;;;;5104833;28;20551;-78
2022/11/21 13:31:46;;;;;;;82.07;46.60;;;;;;;;;;5115429;28;20470;-78
2022/11/21 13:34:34;;;;;;;130.13;59.77;;;10.50;99.90;;;;;;5115447;28;20817;-78
